Terminal Aerodrome Forecast
Issued by NWS

Home | Current Version | Previous Version | Text Only | Print | Product List | Glossary On
Versions: 1 2 3 4 5 6 7 8 9 10 11 12 13 14
899
FTUS42 TJSJ 201140
TAFJSJ
TAF
TJSJ 201140Z 2012/2112 VRB04KT P6SM FEW020 FEW060
     FM201500 35008KT P6SM VCTS SCT025CB BKN040
     FM202100 27012KT P6SM FEW030 SCT070 SCT100
     FM210100 35008KT P6SM FEW030=

USA.gov is the U.S. government's official web portal to all federal, state and local government web resources and services.